Nichiryu Maru — JG5632 — position and weather

sailwx.info

Track history (hours):
 
Tides and Currents Weather Stations Pressure Air Temp Water Temp Dewpoint Dewpoint Depression Visibility Wind Speed Wind Dir Waves Ship Positions

Nichiryu Maru

Last reported at 2014-Oct-24 15:24 UTC. Time now 2014-Oct-25 11:15 UTC.
Position N 33°57' E 132°41'.

Length 158 m; draft 6.5 m.

Type: Cargo ship. MMSI: 43100939.

Date/timePositionNaut miles runAvg speedWind from/ knotsBaromVisibWave heightAir tempDewpointWater temp
2014-Oct-24 15:24N 33°57' E 132°41'11315.7
2014-Oct-24 08:14N 34°34' E 134°50'1116.8
2014-Oct-24 07:33N 34°36' E 135°03'1010.0
2014-Oct-24 06:33N 34°41' E 135°14'0 0.5
2014-Oct-24 05:32N 34°41' E 135°13'0 0.0
2014-Oct-24 04:32N 34°41' E 135°13'0 0.0
2014-Oct-24 03:32N 34°41' E 135°13'9 9.4
2014-Oct-24 02:33N 34°32' E 135°12'1818.4
2014-Oct-24 01:33N 34°16' E 134°60'1818.1
2014-Oct-24 00:33N 33°58' E 134°60'24417.4
2014-Oct-23 10:32N 35°08' E 139°44'1111.6
2014-Oct-23 09:33N 35°19' E 139°40'1 0.7
2014-Oct-23 08:28N 35°19' E 139°39'0 0.0
2014-Oct-23 07:16N 35°19' E 139°39'0 0.0
2014-Oct-23 05:13N 35°19' E 139°39'0 0.0
2014-Oct-23 04:25N 35°19' E 139°39'3 3.5
2014-Oct-23 03:33N 35°19' E 139°43'1313.4
2014-Oct-23 02:33N 35°05' E 139°44'  
2014-Oct-20 11:10N 35°04' E 139°40'1117.0
2014-Oct-20 10:33N 35°13' E 139°47'8 5.6
2014-Oct-20 09:05N 35°19' E 139°39'0 0.0
2014-Oct-20 07:20N 35°19' E 139°39'0 0.0
2014-Oct-20 05:29N 35°19' E 139°39'0 0.0
2014-Oct-20 04:17N 35°19' E 139°39'0 0.0
2014-Oct-20 03:23N 35°19' E 139°39'0 0.0
2014-Oct-20 02:23N 35°19' E 139°39'0 0.0
2014-Oct-20 01:29N 35°19' E 139°39'0 0.0
2014-Oct-20 00:08N 35°19' E 139°39'0 0.0
2014-Oct-19 23:29N 35°19' E 139°39'2 2.0
2014-Oct-19 22:33N 35°19' E 139°41'0 0.0
2014-Oct-19 21:33N 35°19' E 139°41'0 0.0
2014-Oct-19 20:33N 35°19' E 139°41'0 0.0
2014-Oct-19 19:33N 35°19' E 139°41'0 0.0
2014-Oct-19 18:30N 35°19' E 139°41'0 0.0
2014-Oct-19 17:33N 35°19' E 139°41'0 0.0
2014-Oct-19 16:33N 35°19' E 139°41'0 0.1
2014-Oct-19 15:33N 35°19' E 139°41'0 0.0
2014-Oct-19 14:33N 35°19' E 139°41'0 0.1
2014-Oct-19 13:33N 35°19' E 139°41'8 8.2
2014-Oct-19 12:33N 35°13' E 139°47'376 8.5
2014-Oct-17 16:31N 33°45' E 132°22'1918.8
2014-Oct-17 15:30N 33°57' E 132°41'11516.6
2014-Oct-17 08:33N 34°35' E 134°52'1818.2
2014-Oct-17 07:33N 34°37' E 135°14'4 3.8
2014-Oct-17 06:31N 34°41' E 135°13'0 0.0
2014-Oct-17 05:13N 34°41' E 135°13'0 0.0
2014-Oct-17 04:25N 34°41' E 135°13'5 6.0
2014-Oct-17 03:33N 34°36' E 135°17'1717.1
2014-Oct-17 02:34N 34°23' E 135°05'1716.8
2014-Oct-17 01:33N 34°06' E 135°00'23516.4
2014-Oct-16 11:13N 35°04' E 139°37'1117.0
2014-Oct-16 10:33N 35°12' E 139°47'9 9.0
2014-Oct-16 09:33N 35°19' E 139°39'0 0.0
2014-Oct-16 08:31N 35°19' E 139°39'0 0.0
2014-Oct-16 07:07N 35°19' E 139°39'0 0.0
2014-Oct-16 06:25N 35°19' E 139°39'0 0.0
2014-Oct-16 05:31N 35°19' E 139°39'0 0.0
2014-Oct-16 04:25N 35°19' E 139°39'0 0.0
2014-Oct-16 03:31N 35°19' E 139°39'0 0.0
2014-Oct-16 02:31N 35°19' E 139°39'0 0.0
2014-Oct-16 01:28N 35°19' E 139°39'2 0.3
2014-Oct-15 18:23N 35°19' E 139°42'0 0.1
2014-Oct-15 17:32N 35°19' E 139°41'0 0.0
2014-Oct-15 16:26N 35°19' E 139°41'0 0.1
2014-Oct-15 15:32N 35°19' E 139°42'0 0.0
2014-Oct-15 14:32N 35°19' E 139°42'0 0.0
2014-Oct-15 13:32N 35°19' E 139°42'0 0.0
2014-Oct-15 12:32N 35°19' E 139°42'0 0.0
2014-Oct-15 11:29N 35°19' E 139°41'0 0.0
2014-Oct-15 10:32N 35°19' E 139°41'0 0.1
2014-Oct-15 09:29N 35°19' E 139°41'0 0.1
2014-Oct-15 08:32N 35°19' E 139°42'0 0.0
2014-Oct-15 07:32N 35°19' E 139°41'0 0.0
2014-Oct-15 06:32N 35°19' E 139°41'0 0.0
2014-Oct-15 05:29N 35°19' E 139°41'0 0.1
2014-Oct-15 04:32N 35°19' E 139°42'0 0.0
2014-Oct-15 03:32N 35°19' E 139°41'0 0.1
2014-Oct-15 02:32N 35°19' E 139°41'0 0.0
2014-Oct-15 01:32N 35°19' E 139°41'0 0.0
2014-Oct-15 00:32N 35°19' E 139°41'0 0.1
2014-Oct-14 23:32N 35°19' E 139°41'0 0.0
2014-Oct-14 22:29N 35°19' E 139°41'0 0.1
2014-Oct-14 21:34N 35°19' E 139°42'0 0.1
2014-Oct-14 20:33N 35°19' E 139°41'0 0.0
2014-Oct-14 19:34N 35°19' E 139°41'0 0.0
2014-Oct-14 18:34N 35°19' E 139°41'0 0.0
2014-Oct-14 17:33N 35°19' E 139°41'0 0.1
2014-Oct-14 16:33N 35°19' E 139°42'0 0.1
2014-Oct-14 15:33N 35°19' E 139°41'  
Track history (hours):
 
Tides and Currents Weather Stations Pressure Air Temp Water Temp Dewpoint Dewpoint Depression Visibility Wind Speed Wind Dir Waves Ship Positions

Nichiryu Maru

Last reported at 2014-Oct-24 15:24 UTC. Time now 2014-Oct-25 11:15 UTC.
Position N 33°57' E 132°41'.

Length 158 m; draft 6.5 m.

Type: Cargo ship. MMSI: 43100939.

Date/timePositionNaut miles runAvg speedWind from/ knotsBaromVisibWave heightAir tempDewpointWater temp
2014-Oct-24 15:24N 33°57' E 132°41'11315.7
2014-Oct-24 08:14N 34°34' E 134°50'1116.8
2014-Oct-24 07:33N 34°36' E 135°03'1010.0
2014-Oct-24 06:33N 34°41' E 135°14'0 0.5
2014-Oct-24 05:32N 34°41' E 135°13'0 0.0
2014-Oct-24 04:32N 34°41' E 135°13'0 0.0
2014-Oct-24 03:32N 34°41' E 135°13'9 9.4
2014-Oct-24 02:33N 34°32' E 135°12'1818.4
2014-Oct-24 01:33N 34°16' E 134°60'1818.1
2014-Oct-24 00:33N 33°58' E 134°60'24417.4
2014-Oct-23 10:32N 35°08' E 139°44'1111.6
2014-Oct-23 09:33N 35°19' E 139°40'1 0.7
2014-Oct-23 08:28N 35°19' E 139°39'0 0.0
2014-Oct-23 07:16N 35°19' E 139°39'0 0.0
2014-Oct-23 05:13N 35°19' E 139°39'0 0.0
2014-Oct-23 04:25N 35°19' E 139°39'3 3.5
2014-Oct-23 03:33N 35°19' E 139°43'1313.4
2014-Oct-23 02:33N 35°05' E 139°44'  
2014-Oct-20 11:10N 35°04' E 139°40'1117.0
2014-Oct-20 10:33N 35°13' E 139°47'8 5.6
2014-Oct-20 09:05N 35°19' E 139°39'0 0.0
2014-Oct-20 07:20N 35°19' E 139°39'0 0.0
2014-Oct-20 05:29N 35°19' E 139°39'0 0.0
2014-Oct-20 04:17N 35°19' E 139°39'0 0.0
2014-Oct-20 03:23N 35°19' E 139°39'0 0.0
2014-Oct-20 02:23N 35°19' E 139°39'0 0.0
2014-Oct-20 01:29N 35°19' E 139°39'0 0.0
2014-Oct-20 00:08N 35°19' E 139°39'0 0.0
2014-Oct-19 23:29N 35°19' E 139°39'2 2.0
2014-Oct-19 22:33N 35°19' E 139°41'0 0.0
2014-Oct-19 21:33N 35°19' E 139°41'0 0.0
2014-Oct-19 20:33N 35°19' E 139°41'0 0.0
2014-Oct-19 19:33N 35°19' E 139°41'0 0.0
2014-Oct-19 18:30N 35°19' E 139°41'0 0.0
2014-Oct-19 17:33N 35°19' E 139°41'0 0.0
2014-Oct-19 16:33N 35°19' E 139°41'0 0.1
2014-Oct-19 15:33N 35°19' E 139°41'0 0.0
2014-Oct-19 14:33N 35°19' E 139°41'0 0.1
2014-Oct-19 13:33N 35°19' E 139°41'8 8.2
2014-Oct-19 12:33N 35°13' E 139°47'376 8.5
2014-Oct-17 16:31N 33°45' E 132°22'1918.8
2014-Oct-17 15:30N 33°57' E 132°41'11516.6
2014-Oct-17 08:33N 34°35' E 134°52'1818.2
2014-Oct-17 07:33N 34°37' E 135°14'4 3.8
2014-Oct-17 06:31N 34°41' E 135°13'0 0.0
2014-Oct-17 05:13N 34°41' E 135°13'0 0.0
2014-Oct-17 04:25N 34°41' E 135°13'5 6.0
2014-Oct-17 03:33N 34°36' E 135°17'1717.1
2014-Oct-17 02:34N 34°23' E 135°05'1716.8
2014-Oct-17 01:33N 34°06' E 135°00'23516.4
2014-Oct-16 11:13N 35°04' E 139°37'1117.0
2014-Oct-16 10:33N 35°12' E 139°47'9 9.0
2014-Oct-16 09:33N 35°19' E 139°39'0 0.0
2014-Oct-16 08:31N 35°19' E 139°39'0 0.0
2014-Oct-16 07:07N 35°19' E 139°39'0 0.0
2014-Oct-16 06:25N 35°19' E 139°39'0 0.0
2014-Oct-16 05:31N 35°19' E 139°39'0 0.0
2014-Oct-16 04:25N 35°19' E 139°39'0 0.0
2014-Oct-16 03:31N 35°19' E 139°39'0 0.0
2014-Oct-16 02:31N 35°19' E 139°39'0 0.0
2014-Oct-16 01:28N 35°19' E 139°39'2 0.3
2014-Oct-15 18:23N 35°19' E 139°42'0 0.1
2014-Oct-15 17:32N 35°19' E 139°41'0 0.0
2014-Oct-15 16:26N 35°19' E 139°41'0 0.1
2014-Oct-15 15:32N 35°19' E 139°42'0 0.0
2014-Oct-15 14:32N 35°19' E 139°42'0 0.0
2014-Oct-15 13:32N 35°19' E 139°42'0 0.0
2014-Oct-15 12:32N 35°19' E 139°42'0 0.0
2014-Oct-15 11:29N 35°19' E 139°41'0 0.0
2014-Oct-15 10:32N 35°19' E 139°41'0 0.1
2014-Oct-15 09:29N 35°19' E 139°41'0 0.1
2014-Oct-15 08:32N 35°19' E 139°42'0 0.0
2014-Oct-15 07:32N 35°19' E 139°41'0 0.0
2014-Oct-15 06:32N 35°19' E 139°41'0 0.0
2014-Oct-15 05:29N 35°19' E 139°41'0 0.1
2014-Oct-15 04:32N 35°19' E 139°42'0 0.0
2014-Oct-15 03:32N 35°19' E 139°41'0 0.1
2014-Oct-15 02:32N 35°19' E 139°41'0 0.0
2014-Oct-15 01:32N 35°19' E 139°41'0 0.0
2014-Oct-15 00:32N 35°19' E 139°41'0 0.1
2014-Oct-14 23:32N 35°19' E 139°41'0 0.0
2014-Oct-14 22:29N 35°19' E 139°41'0 0.1
2014-Oct-14 21:34N 35°19' E 139°42'0 0.1
2014-Oct-14 20:33N 35°19' E 139°41'0 0.0
2014-Oct-14 19:34N 35°19' E 139°41'0 0.0
2014-Oct-14 18:34N 35°19' E 139°41'0 0.0
2014-Oct-14 17:33N 35°19' E 139°41'0 0.1
2014-Oct-14 16:33N 35°19' E 139°42'0 0.1
2014-Oct-14 15:33N 35°19' E 139°41'  

Dump ship's entire track history